createdAt,value
2019-01-30T00:02:13.402Z,8.77
2019-01-30T00:05:03.409Z,7.30
2019-01-30T00:07:34.430Z,5.70
2019-01-30T00:10:17.016Z,5.17
2019-01-30T00:13:00.173Z,5.70
2019-01-30T00:15:33.741Z,5.90
2019-01-30T00:21:26.119Z,5.07
2019-01-30T00:23:57.089Z,4.30
2019-01-30T00:26:46.903Z,3.90
2019-01-30T00:40:42.425Z,3.97
2019-01-30T00:43:26.800Z,5.30
2019-01-30T00:49:00.867Z,4.20
2019-01-30T00:51:32.075Z,3.70
2019-01-30T00:54:03.063Z,4.40
2019-01-30T00:56:35.554Z,4.73
2019-01-30T00:59:06.604Z,5.37
2019-01-30T01:01:48.884Z,5.37
2019-01-30T01:04:31.989Z,4.40
2019-01-30T01:07:05.795Z,5.23
2019-01-30T01:12:59.973Z,4.40
2019-01-30T01:18:50.064Z,4.40
2019-01-30T01:21:22.490Z,5.23
2019-01-30T01:23:53.392Z,4.80
2019-01-30T01:26:24.252Z,5.83
2019-01-30T01:29:07.542Z,5.30
2019-01-30T01:34:35.539Z,6.57
2019-01-30T01:37:17.750Z,5.13
2019-01-30T01:40:09.194Z,5.40
2019-01-30T01:42:40.412Z,9.07
2019-01-30T01:45:30.507Z,5.67
2019-01-30T01:48:01.322Z,6.73
2019-01-30T01:50:32.247Z,6.80
2019-01-30T01:53:04.499Z,8.70
2019-01-30T01:55:35.356Z,4.60
2019-01-30T01:58:08.640Z,4.80
2019-01-30T02:03:24.477Z,4.57
2019-01-30T02:05:55.280Z,4.43
2019-01-30T02:08:37.935Z,6.37
2019-01-30T02:11:08.813Z,6.53
2019-01-30T02:13:59.978Z,5.33
2019-01-30T02:16:49.603Z,6.07
2019-01-30T02:19:20.512Z,4.07
2019-01-30T02:22:03.274Z,5.10
2019-01-30T04:27:13.566Z,2.23
2019-01-30T04:29:45.079Z,2.20
2019-01-30T04:32:16.023Z,4.77
2019-01-30T04:34:47.725Z,2.57
2019-01-30T04:37:29.976Z,2.20
2019-01-30T04:40:12.013Z,3.53
2019-01-30T04:42:43.559Z,4.97
2019-01-30T04:45:17.184Z,3.10
2019-01-30T04:47:49.632Z,5.43
2019-01-30T04:53:34.729Z,3.43
2019-01-30T04:56:05.643Z,3.47
2019-01-30T04:58:36.595Z,2.23
2019-01-30T05:01:49.267Z,2.13
2019-01-30T05:04:10.348Z,2.60
2019-01-30T05:06:43.614Z,3.67
2019-01-30T05:09:26.117Z,4.17
2019-01-30T05:12:10.908Z,3.07
2019-01-30T05:14:41.877Z,3.60
2019-01-30T05:17:12.719Z,3.17
2019-01-30T05:20:05.363Z,3.43
2019-01-30T05:22:36.246Z,4.03
2019-01-30T05:25:07.773Z,2.90
2019-01-30T05:27:53.205Z,4.43
2019-01-30T05:30:36.091Z,3.23
2019-01-30T05:33:06.965Z,4.90
2019-01-30T05:35:39.351Z,5.53
2019-01-30T05:38:21.478Z,3.70
2019-01-30T05:46:44.469Z,4.97
2019-01-30T05:49:15.385Z,5.37
2019-01-30T05:54:41.738Z,5.17
2019-01-30T05:57:14.803Z,5.23
2019-01-30T06:03:15.485Z,4.00
2019-01-30T06:05:46.424Z,5.33
2019-01-30T06:08:36.603Z,5.33
2019-01-30T06:14:31.710Z,4.07
2019-01-30T06:17:14.970Z,5.00
2019-01-30T06:19:46.106Z,3.67
2019-01-30T06:25:27.096Z,5.00
2019-01-30T06:27:58.341Z,3.87
2019-01-30T06:30:40.985Z,6.07
2019-01-30T06:33:23.828Z,3.80
2019-01-30T06:35:54.999Z,5.40
2019-01-30T06:38:45.131Z,5.47
2019-01-30T06:41:17.110Z,4.00
2019-01-30T06:44:02.058Z,4.70
2019-01-30T06:46:40.418Z,5.73
2019-01-30T06:49:06.314Z,5.53
2019-01-30T06:51:48.618Z,4.10
2019-01-30T06:54:31.086Z,3.87
2019-01-30T06:57:02.337Z,4.80
2019-01-30T06:59:46.317Z,4.80
2019-01-30T07:02:17.647Z,5.97
2019-01-30T07:08:03.051Z,5.20
2019-01-30T07:13:44.903Z,4.47
2019-01-30T07:22:01.687Z,6.33
2019-01-30T07:24:43.343Z,6.93
2019-01-30T07:27:26.047Z,5.40
2019-01-30T07:29:58.667Z,5.00
2019-01-30T07:39:55.095Z,5.30
2019-01-30T07:42:26.439Z,6.07
2019-01-30T07:44:57.320Z,6.57
2019-01-30T07:47:30.162Z,7.03
2019-01-30T07:50:20.622Z,5.37
2019-01-30T07:52:54.004Z,4.77
2019-01-30T07:55:24.995Z,4.87
2019-01-30T07:57:56.799Z,7.77
2019-01-30T08:00:46.891Z,7.43
2019-01-30T08:03:18.004Z,6.90
2019-01-30T08:05:50.415Z,6.00
2019-01-30T08:08:32.349Z,7.50
2019-01-30T08:11:22.156Z,6.10
2019-01-30T08:17:08.086Z,5.67
2019-01-30T08:19:39.144Z,4.73
2019-01-30T08:22:10.341Z,9.43
2019-01-30T08:24:43.651Z,16.33
2019-01-30T08:27:54.335Z,23.50
2019-01-30T08:30:32.690Z,8.70
2019-01-30T08:33:10.860Z,9.13
2019-01-30T08:36:02.717Z,7.37
2019-01-30T08:38:49.179Z,5.97
2019-01-30T08:47:10.919Z,9.10
2019-01-30T08:49:42.139Z,6.53
2019-01-30T08:52:13.038Z,7.37
2019-01-30T08:55:03.395Z,6.17
2019-01-30T08:57:54.867Z,7.07
2019-01-30T09:00:27.303Z,9.87
2019-01-30T09:06:03.098Z,7.43
2019-01-30T09:08:55.282Z,11.87
2019-01-30T09:11:45.990Z,6.63
2019-01-30T09:14:19.121Z,9.50
2019-01-30T09:17:06.790Z,7.20
2019-01-30T09:19:37.846Z,8.40
2019-01-30T09:24:59.725Z,8.10
2019-01-30T09:27:32.440Z,8.67
2019-01-30T09:30:23.003Z,7.90
2019-01-30T09:32:55.450Z,8.17
2019-01-30T09:35:57.116Z,8.93
2019-01-30T09:38:28.332Z,10.10
2019-01-30T09:41:18.787Z,9.10
2019-01-30T09:44:09.274Z,9.87
2019-01-30T09:46:40.873Z,8.60
2019-01-30T09:49:25.473Z,8.60
2019-01-30T09:51:56.992Z,7.00
2019-01-30T09:54:46.724Z,8.20
2019-01-30T09:57:17.666Z,8.10
2019-01-30T09:59:59.853Z,7.63
2019-01-30T10:02:42.415Z,9.07
2019-01-30T10:14:22.131Z,10.10
2019-01-30T10:16:55.231Z,7.33
2019-01-30T10:19:26.361Z,7.73
2019-01-30T10:22:16.501Z,5.87
2019-01-30T10:25:06.513Z,9.33
2019-01-30T10:30:41.918Z,10.20
2019-01-30T10:33:59.949Z,8.43
2019-01-30T10:36:04.964Z,9.67
2019-01-30T10:38:36.127Z,13.93
2019-01-30T10:41:07.097Z,8.27
2019-01-30T10:44:07.486Z,10.23
2019-01-30T10:46:32.807Z,9.13
2019-01-30T10:49:23.815Z,8.10
2019-01-30T10:52:06.925Z,9.57
2019-01-30T10:58:01.806Z,7.40
2019-01-30T11:00:35.763Z,10.23
2019-01-30T11:06:09.514Z,8.07
2019-01-30T11:09:01.665Z,9.23
2019-01-30T11:11:34.411Z,8.70
2019-01-30T11:14:15.473Z,8.60
2019-01-30T11:16:47.838Z,6.87
2019-01-30T11:19:18.775Z,12.50
2019-01-30T11:22:10.029Z,11.17
2019-01-30T11:24:41.211Z,11.73
2019-01-30T11:30:27.371Z,9.97
2019-01-30T11:36:18.167Z,9.20
2019-01-30T11:44:59.435Z,8.07
2019-01-30T11:53:15.160Z,10.73
2019-01-30T11:55:59.598Z,8.60
2019-01-30T12:01:45.872Z,9.20
2019-01-30T12:07:32.433Z,9.13
2019-01-30T12:10:15.057Z,7.90
2019-01-30T12:12:46.101Z,8.60
2019-01-30T12:18:45.258Z,9.27
2019-01-30T12:21:32.149Z,9.67
2019-01-30T12:27:17.076Z,11.60
2019-01-30T12:29:48.047Z,13.03
2019-01-30T12:32:23.134Z,10.90
2019-01-30T12:35:31.967Z,8.63
2019-01-30T12:38:07.172Z,9.20
2019-01-30T12:43:45.319Z,8.83
2019-01-30T12:46:21.777Z,10.67
2019-01-30T12:48:55.109Z,12.07
2019-01-30T12:51:47.289Z,9.57
2019-01-30T12:54:37.684Z,9.83
2019-01-30T12:57:20.412Z,10.33
2019-01-30T12:59:51.990Z,11.03
2019-01-30T13:02:24.180Z,9.47
2019-01-30T13:08:18.107Z,9.37
2019-01-30T13:11:00.091Z,10.70
2019-01-30T13:13:50.163Z,12.50
2019-01-30T13:19:22.035Z,11.07
2019-01-30T13:21:52.977Z,10.27
2019-01-30T13:27:24.991Z,9.67
2019-01-30T13:29:58.794Z,10.90
2019-01-30T13:35:37.379Z,18.87
2019-01-30T13:38:27.103Z,9.33
2019-01-30T13:41:00.002Z,9.80
2019-01-30T13:43:45.586Z,9.37
2019-01-30T13:46:35.408Z,11.80
2019-01-30T13:56:31.246Z,9.37
2019-01-30T14:06:01.818Z,12.20
2019-01-30T14:08:43.277Z,11.10
2019-01-30T14:11:15.923Z,12.63
2019-01-30T14:13:58.132Z,12.83
2019-01-30T14:16:40.470Z,15.30
2019-01-30T14:19:13.999Z,11.73
2019-01-30T14:25:23.937Z,11.07
2019-01-30T14:28:29.226Z,9.63
2019-01-30T14:31:21.270Z,13.17
2019-01-30T14:33:55.263Z,12.07
2019-01-30T14:36:27.167Z,13.33
2019-01-30T14:38:58.292Z,12.77
2019-01-30T14:44:30.203Z,16.80
2019-01-30T14:49:56.602Z,14.40
2019-01-30T14:52:49.711Z,12.97
2019-01-30T14:55:33.464Z,12.03
2019-01-30T14:58:13.251Z,12.30
2019-01-30T15:00:48.492Z,12.63
2019-01-30T15:03:38.425Z,13.97
2019-01-30T15:06:10.836Z,13.43
2019-01-30T15:08:42.247Z,13.13
2019-01-30T15:11:14.920Z,12.17
2019-01-30T15:13:53.500Z,15.00
2019-01-30T15:19:47.221Z,13.73
2019-01-30T15:22:18.549Z,13.20
2019-01-30T15:24:50.510Z,16.33
2019-01-30T15:27:37.858Z,11.87
2019-01-30T15:30:11.490Z,15.37
2019-01-30T15:33:01.604Z,15.60
2019-01-30T15:36:13.409Z,16.70
2019-01-30T15:38:50.489Z,15.67
2019-01-30T15:41:59.421Z,17.47
2019-01-30T15:50:35.737Z,16.47
2019-01-30T16:00:07.337Z,14.37
2019-01-30T16:03:10.244Z,19.17
2019-01-30T16:10:24.167Z,14.40
2019-01-30T16:19:07.693Z,12.00
2019-01-30T16:31:02.119Z,12.90
2019-01-30T16:37:19.263Z,16.23
2019-01-30T16:40:35.086Z,13.27
2019-01-30T16:43:13.755Z,19.47
2019-01-30T16:46:04.050Z,14.80
2019-01-30T16:48:44.873Z,14.83
2019-01-30T16:51:30.871Z,14.43
2019-01-30T16:57:08.064Z,14.23
2019-01-30T16:59:51.052Z,17.80
2019-01-30T17:05:35.094Z,12.53
2019-01-30T17:15:05.968Z,16.10
2019-01-30T17:17:52.350Z,14.07
2019-01-30T17:20:46.824Z,17.07
2019-01-30T17:29:16.956Z,13.00
2019-01-30T17:35:06.860Z,16.00
2019-01-30T17:37:57.355Z,16.27
2019-01-30T17:41:07.103Z,15.70
2019-01-30T17:47:02.537Z,15.13
2019-01-30T17:49:53.361Z,14.23
2019-01-30T17:52:30.127Z,16.30
2019-01-30T18:03:37.082Z,18.73
2019-01-30T18:06:31.378Z,15.50
2019-01-30T18:12:12.744Z,16.17
2019-01-30T18:18:05.321Z,15.70
2019-01-30T18:26:41.733Z,18.90
2019-01-30T18:32:36.259Z,13.37
2019-01-30T18:35:31.296Z,15.00
2019-01-30T18:41:08.056Z,14.20
2019-01-30T18:44:36.163Z,16.37
2019-01-30T18:47:47.200Z,12.57
2019-01-30T18:50:37.127Z,16.40
2019-01-30T18:53:28.283Z,13.70
2019-01-30T18:59:59.804Z,16.30
2019-01-30T19:02:35.291Z,16.80
2019-01-30T19:05:20.446Z,16.13
2019-01-30T19:11:10.384Z,16.40
2019-01-30T19:16:49.674Z,14.40
2019-01-30T19:22:40.212Z,16.70
2019-01-30T19:28:11.052Z,20.77
2019-01-30T19:31:40.150Z,14.00
2019-01-30T19:34:14.221Z,15.07
2019-01-30T19:37:03.664Z,13.30
2019-01-30T19:51:17.745Z,15.87
2019-01-30T20:00:24.012Z,10.27
2019-01-30T20:03:16.036Z,9.23
2019-01-30T20:09:24.251Z,9.70
2019-01-30T20:17:36.940Z,8.27
2019-01-30T20:23:43.491Z,8.87
2019-01-30T20:26:33.892Z,8.93
2019-01-30T20:29:23.759Z,8.90
2019-01-30T20:31:54.997Z,9.27
2019-01-30T20:37:38.114Z,8.90
2019-01-30T20:40:13.055Z,9.37
2019-01-30T20:42:44.161Z,9.30
2019-01-30T20:45:45.613Z,9.60
2019-01-30T20:48:20.336Z,8.93
2019-01-30T20:56:45.222Z,8.03
2019-01-30T20:59:46.948Z,7.33
2019-01-30T21:03:06.441Z,7.37
2019-01-30T21:08:59.359Z,9.13
2019-01-30T21:15:01.417Z,7.83
2019-01-30T21:17:52.974Z,5.90
2019-01-30T21:20:25.713Z,6.90
2019-01-30T21:22:57.684Z,5.73
2019-01-30T21:28:51.285Z,7.43
2019-01-30T21:31:23.995Z,11.17
2019-01-30T21:34:09.764Z,7.43
2019-01-30T21:36:55.717Z,6.07
2019-01-30T21:42:35.796Z,6.87
2019-01-30T21:45:46.128Z,7.70
2019-01-30T21:48:36.057Z,6.13
2019-01-30T21:51:21.004Z,6.73
2019-01-30T21:59:53.370Z,5.33
2019-01-30T22:02:41.508Z,5.50
2019-01-30T22:12:05.133Z,4.50
2019-01-30T22:14:37.578Z,5.00
2019-01-30T22:17:28.444Z,5.30
2019-01-30T22:22:44.655Z,7.03
2019-01-30T22:25:27.573Z,4.90
2019-01-30T22:28:01.622Z,4.73
2019-01-30T22:34:18.855Z,6.67
2019-01-30T22:51:43.533Z,4.53
2019-01-30T22:54:34.864Z,4.90
2019-01-30T23:01:06.937Z,3.23
2019-01-30T23:04:03.658Z,5.40
2019-01-30T23:07:15.978Z,2.97
2019-01-30T23:10:18.969Z,3.20
2019-01-30T23:16:40.375Z,2.73
2019-01-30T23:19:49.505Z,3.20
2019-01-30T23:26:36.959Z,4.10
2019-01-30T23:29:48.732Z,2.83
2019-01-30T23:36:32.089Z,2.83
2019-01-30T23:46:35.865Z,2.27
2019-01-30T23:49:39.400Z,2.43
2019-01-30T23:52:52.563Z,3.07
2019-01-30T23:59:21.767Z,2.57
